Time;durP1;ratioP1;P1;durP2;ratioP2;P2;SDS_P1;SDS_P2;PMS_P1;PMS_P2;Temp;Humidity;BMP_temperature;BMP_pressure;BME280_temperature;BME280_humidity;BME280_pressure;Samples;Min_cycle;Max_cycle;Signal;HPM_P1;HPM_P2
2020/12/17 00:00:41;;;;;;;121.90;45.10;;;;;;;4.73;87.83;101261.22;1721337;83;25654;-49
2020/12/17 00:03:08;;;;;;;121.92;45.58;;;;;;;4.73;87.87;101259.88;1721278;83;25610;-55
2020/12/17 00:05:35;;;;;;;120.28;44.77;;;;;;;4.73;87.90;101266.05;1721407;83;26453;-52
2020/12/17 00:08:02;;;;;;;130.57;51.50;;;;;;;4.72;87.93;101265.78;1721473;83;25671;-54
2020/12/17 00:10:28;;;;;;;191.80;75.28;;;;;;;4.72;87.91;101267.12;1721392;82;25701;-53
2020/12/17 00:12:55;;;;;;;134.70;48.17;;;;;;;4.72;87.90;101264.98;1721418;83;25703;-51
2020/12/17 00:15:22;;;;;;;119.55;46.02;;;;;;;4.70;87.87;101271.92;1721518;82;26488;-52
2020/12/17 00:17:53;;;;;;;128.75;48.83;;;;;;;4.70;87.90;101266.56;1721433;83;25999;-51
2020/12/17 00:20:23;;;;;;;123.45;47.40;;;;;;;4.68;87.87;101271.33;1721353;83;25766;-50
2020/12/17 00:22:50;;;;;;;120.62;47.60;;;;;;;4.67;87.86;101273.75;1721680;83;25740;-51
2020/12/17 00:25:18;;;;;;;126.27;48.08;;;;;;;4.67;87.94;101275.09;1721589;83;25707;-51
2020/12/17 00:27:46;;;;;;;139.45;49.05;;;;;;;4.66;87.98;101275.59;1721721;83;25830;-51
2020/12/17 00:30:16;;;;;;;133.65;49.15;;;;;;;4.66;88.02;101272.91;1721531;83;25729;-53
2020/12/17 00:32:45;;;;;;;118.35;48.50;;;;;;;4.65;88.03;101275.33;1721535;83;31372;-53
2020/12/17 00:35:12;;;;;;;123.50;45.23;;;;;;;4.66;88.01;101269.43;1721569;83;25794;-47
2020/12/17 00:37:40;;;;;;;109.87;44.35;;;;;;;4.66;88.04;101275.59;1721554;83;25656;-44
2020/12/17 00:40:13;;;;;;;105.43;44.00;;;;;;;4.65;87.97;101273.98;1721591;83;25576;-48
2020/12/17 00:42:46;;;;;;;100.10;43.60;;;;;;;4.64;87.93;101277.71;1721651;83;25800;-49
2020/12/17 00:45:14;;;;;;;108.55;42.50;;;;;;;4.64;87.92;101280.39;1721466;83;25653;-49
2020/12/17 00:47:41;;;;;;;115.00;45.88;;;;;;;4.63;87.95;101273.42;1721514;83;25656;-49
2020/12/17 00:50:10;;;;;;;112.45;44.40;;;;;;;4.63;87.92;101277.45;1721519;83;25603;-52
2020/12/17 00:52:40;;;;;;;110.85;48.73;;;;;;;4.61;87.89;101278.20;1721698;83;25738;-51
2020/12/17 00:55:08;;;;;;;114.20;45.78;;;;;;;4.60;87.90;101277.93;1721447;83;26054;-47
2020/12/17 00:57:35;;;;;;;115.52;45.70;;;;;;;4.61;87.94;101279.53;1721462;83;25795;-53
2020/12/17 01:00:05;;;;;;;112.80;45.50;;;;;;;4.59;87.88;101282.99;1721596;83;25704;-52
2020/12/17 01:02:32;;;;;;;116.42;45.48;;;;;;;4.59;87.93;101283.53;1721561;83;25712;-52
2020/12/17 01:04:58;;;;;;;114.15;46.15;;;;;;;4.59;87.97;101280.31;1721577;83;25273;-53
2020/12/17 01:07:25;;;;;;;116.30;47.25;;;;;;;4.58;87.95;101278.70;1721524;83;26380;-51
2020/12/17 01:09:52;;;;;;;103.22;42.95;;;;;;;4.58;87.96;101283.23;1721483;83;25669;-53
2020/12/17 01:12:18;;;;;;;103.55;43.00;;;;;;;4.56;87.90;101281.33;1721493;83;25667;-49
2020/12/17 01:14:45;;;;;;;102.62;42.48;;;;;;;4.56;87.96;101281.33;1721469;83;26062;-55
2020/12/17 01:17:12;;;;;;;110.45;46.33;;;;;;;4.56;88.00;101288.84;1721325;83;25739;-54
2020/12/17 01:19:38;;;;;;;105.05;43.50;;;;;;;4.55;87.98;101286.43;1698889;83;26981;-54
2020/12/17 01:22:05;;;;;;;110.12;44.23;;;;;;;4.56;88.03;101288.84;1721412;83;25715;-54
2020/12/17 01:24:32;;;;;;;101.38;43.05;;;;;;;4.56;88.01;101286.16;1721934;82;25603;-50
2020/12/17 01:26:59;;;;;;;100.82;43.15;;;;;;;4.56;87.99;101294.20;1721710;83;25723;-51
2020/12/17 01:29:25;;;;;;;101.00;44.77;;;;;;;4.56;88.02;101291.52;1722043;83;25745;-51
2020/12/17 01:31:59;;;;;;;121.57;53.75;;;;;;;4.57;88.01;101296.37;1722045;83;26269;-48
2020/12/17 01:34:26;;;;;;;109.95;46.15;;;;;;;4.56;87.97;101292.05;1721979;83;25663;-45
2020/12/17 01:36:57;;;;;;;103.17;45.17;;;;;;;4.55;87.97;101291.78;1721952;83;25592;-50
2020/12/17 01:39:25;;;;;;;99.77;43.90;;;;;;;4.55;87.96;101291.78;1722027;83;25612;-50
2020/12/17 01:41:54;;;;;;;103.87;45.40;;;;;;;4.53;87.97;101289.34;1722362;83;25706;-51
2020/12/17 01:44:21;;;;;;;110.10;45.90;;;;;;;4.54;87.97;101292.30;1722084;83;28126;-46
2020/12/17 01:46:48;;;;;;;97.55;43.45;;;;;;;4.54;88.02;101284.25;1721939;83;25720;-45
2020/12/17 01:49:20;;;;;;;106.97;45.33;;;;;;;4.54;87.98;101284.80;1721980;83;25736;-52
2020/12/17 01:51:50;;;;;;;102.22;42.27;;;;;;;4.54;88.00;101279.44;1720809;83;25647;-52
2020/12/17 01:54:17;;;;;;;112.12;43.38;;;;;;;4.54;87.98;101284.80;1722224;83;25613;-53
2020/12/17 01:56:47;;;;;;;109.25;44.60;;;;;;;4.53;87.95;101280.47;1722053;83;26727;-53
2020/12/17 01:59:25;;;;;;;116.05;45.40;;;;;;;4.54;87.97;101288.81;1721969;83;25664;-52
2020/12/17 02:01:54;;;;;;;110.40;45.17;;;;;;;4.52;87.91;101292.27;1722032;83;25644;-52
2020/12/17 02:04:23;;;;;;;111.87;46.10;;;;;;;4.49;87.92;101294.39;1722230;83;25800;-53
2020/12/17 02:06:51;;;;;;;110.57;44.13;;;;;;;4.47;87.86;101294.33;1722046;83;25790;-52
2020/12/17 02:09:19;;;;;;;110.08;44.67;;;;;;;4.45;87.90;101294.57;1722143;83;25856;-53
2020/12/17 02:11:55;;;;;;;118.22;47.83;;;;;;;4.45;87.97;101297.78;1721835;83;25632;-47
2020/12/17 02:14:25;;;;;;;123.42;48.25;;;;;;;4.44;87.96;101292.97;1721721;83;25668;-49
2020/12/17 02:16:53;;;;;;;116.05;47.00;;;;;;;4.42;87.96;101291.57;1722056;83;26054;-51
2020/12/17 02:19:21;;;;;;;111.62;47.08;;;;;;;4.41;88.04;101298.80;1722068;83;25658;-53
2020/12/17 02:21:48;;;;;;;116.50;48.55;;;;;;;4.40;88.08;101299.04;1722088;83;26178;-52
2020/12/17 02:24:21;;;;;;;113.77;48.30;;;;;;;4.40;88.12;101296.36;1721921;83;25805;-54
2020/12/17 02:26:48;;;;;;;115.47;47.60;;;;;;;4.40;88.17;101291.81;1721790;83;25675;-53
2020/12/17 02:29:14;;;;;;;106.63;46.35;;;;;;;4.41;88.23;101297.47;1722013;83;25713;-52
2020/12/17 02:31:41;;;;;;;102.92;45.83;;;;;;;4.42;88.24;101306.30;1722000;83;25659;-53
2020/12/17 02:34:08;;;;;;;112.62;47.33;;;;;;;4.42;88.26;101304.42;1722047;83;26416;-52
2020/12/17 02:36:34;;;;;;;113.45;48.33;;;;;;;4.44;88.22;101302.84;1721939;83;25736;-50
2020/12/17 02:39:01;;;;;;;117.35;47.15;;;;;;;4.44;88.20;101304.19;1722034;82;25692;-53
2020/12/17 02:41:28;;;;;;;97.50;45.73;;;;;;;4.42;88.18;101296.39;1721973;83;25646;-49
2020/12/17 02:43:54;;;;;;;97.97;44.93;;;;;;;4.43;88.18;101304.72;1722053;83;25621;-54
2020/12/17 02:46:21;;;;;;;99.05;46.10;;;;;;;4.43;88.18;101296.69;1721958;83;25848;-55
2020/12/17 02:48:53;;;;;;;109.65;45.23;;;;;;;4.44;88.20;101294.30;1722468;83;25623;-48
2020/12/17 02:51:20;;;;;;;98.10;44.73;;;;;;;4.45;88.16;101297.78;1723084;83;25659;-52
2020/12/17 02:53:48;;;;;;;101.82;44.03;;;;;;;4.44;88.13;101295.64;1722946;83;25691;-50
2020/12/17 02:56:17;;;;;;;94.50;42.58;;;;;;;4.43;88.08;101294.01;1723042;82;25262;-53
2020/12/17 02:58:44;;;;;;;99.65;44.15;;;;;;;4.44;88.09;101294.81;1723063;83;25927;-52
2020/12/17 03:01:10;;;;;;;88.58;41.80;;;;;;;4.42;88.04;101299.61;1722874;83;25764;-51
2020/12/17 03:03:37;;;;;;;96.10;41.90;;;;;;;4.40;88.08;101302.52;1723001;82;25614;-51
2020/12/17 03:06:05;;;;;;;87.35;42.25;;;;;;;4.41;88.20;101293.95;1723001;83;25708;-48
2020/12/17 03:08:32;;;;;;;94.10;41.68;;;;;;;4.42;88.20;101299.61;1723042;83;25936;-55
2020/12/17 03:10:58;;;;;;;89.92;40.10;;;;;;;4.43;88.22;101302.58;1722997;82;25932;-50
2020/12/17 03:13:25;;;;;;;96.10;42.43;;;;;;;4.36;88.20;101293.36;1722891;83;25674;-53
2020/12/17 03:15:52;;;;;;;76.53;38.42;;;;;;;4.42;88.15;101304.42;1723012;83;25595;-52
2020/12/17 03:18:18;;;;;;;83.05;39.88;;;;;;;4.42;88.04;101306.30;1722995;83;25659;-50
2020/12/17 03:20:45;;;;;;;88.25;39.85;;;;;;;4.41;88.13;101304.16;1723072;83;25660;-53
2020/12/17 03:23:11;;;;;;;85.55;39.88;;;;;;;4.42;88.19;101300.41;1722998;83;26171;-54
2020/12/17 03:25:38;;;;;;;92.60;40.85;;;;;;;4.43;88.18;101302.58;1722900;83;25687;-51
2020/12/17 03:28:05;;;;;;;87.67;39.65;;;;;;;4.42;88.06;101312.47;1723056;83;25682;-51
2020/12/17 03:30:31;;;;;;;87.72;38.05;;;;;;;4.41;88.04;101307.34;1722928;82;25698;-49
2020/12/17 03:32:59;;;;;;;80.07;36.73;;;;;;;4.39;88.06;101304.94;1723020;83;25697;-50
2020/12/17 03:35:25;;;;;;;86.87;40.83;;;;;;;4.40;88.12;101304.40;1723020;83;27287;-53
2020/12/17 03:37:57;;;;;;;83.85;39.33;;;;;;;4.39;88.10;101304.94;1722886;83;25858;-54
2020/12/17 03:40:22;;;;;;;85.25;39.20;;;;;;;4.38;88.11;101314.55;1722496;82;25587;-53
2020/12/17 03:42:48;;;;;;;85.07;39.45;;;;;;;4.37;88.05;101310.23;1722983;83;25664;-48
2020/12/17 03:45:15;;;;;;;79.92;36.70;;;;;;;4.36;88.05;101313.95;1722986;83;25624;-54
2020/12/17 03:47:41;;;;;;;79.30;38.88;;;;;;;4.34;88.10;101312.86;1723120;83;26255;-54
2020/12/17 03:50:08;;;;;;;87.60;39.33;;;;;;;4.34;88.15;101309.38;1721907;83;25693;-52
2020/12/17 03:52:34;;;;;;;81.25;37.53;;;;;;;4.35;88.23;101316.37;1721884;82;25656;-54
2020/12/17 03:55:01;;;;;;;80.57;38.28;;;;;;;4.34;88.17;101313.39;1722027;83;25664;-53
2020/12/17 03:57:28;;;;;;;73.47;37.20;;;;;;;4.33;88.16;101315.27;1721997;83;25226;-46
2020/12/17 03:59:54;;;;;;;83.92;40.12;;;;;;;4.33;88.25;101309.91;1722090;83;26376;-53
2020/12/17 04:02:21;;;;;;;80.62;37.70;;;;;;;4.34;88.26;101318.22;1722063;83;25713;-52
2020/12/17 04:04:48;;;;;;;75.10;37.23;;;;;;;4.34;88.24;101307.50;1722140;83;25679;-46
2020/12/17 04:07:15;;;;;;;88.00;40.28;;;;;;;4.33;88.22;101309.91;1699387;83;25704;-52
2020/12/17 04:09:43;;;;;;;78.20;38.67;;;;;;;4.34;88.29;101309.38;1722192;83;25614;-53
2020/12/17 04:12:10;;;;;;;81.35;36.28;;;;;;;4.33;88.27;101313.93;1722160;83;26167;-50
2020/12/17 04:14:39;;;;;;;82.15;37.75;;;;;;;4.33;88.26;101313.93;1721999;83;25755;-53
2020/12/17 04:17:06;;;;;;;82.08;38.17;;;;;;;4.34;88.31;101312.86;1722286;83;25687;-53
2020/12/17 04:19:33;;;;;;;77.72;36.73;;;;;;;4.33;88.25;101313.12;1722142;83;26071;-54
2020/12/17 04:21:59;;;;;;;79.50;38.50;;;;;;;4.34;88.26;101314.20;1722154;83;25617;-52
2020/12/17 04:24:26;;;;;;;77.85;38.33;;;;;;;4.34;88.28;101306.16;1722092;83;27176;-48
2020/12/17 04:26:53;;;;;;;81.95;38.90;;;;;;;4.34;88.23;101310.18;1721991;83;25759;-51
2020/12/17 04:29:20;;;;;;;81.87;38.90;;;;;;;4.34;88.27;101314.73;1722208;83;25757;-51
2020/12/17 04:31:46;;;;;;;84.67;39.63;;;;;;;4.33;88.26;101308.57;1722014;82;25603;-51
2020/12/17 04:34:13;;;;;;;81.28;38.17;;;;;;;4.34;88.31;101309.38;1722113;83;25732;-52
2020/12/17 04:36:40;;;;;;;84.77;40.80;;;;;;;4.34;88.38;101310.18;1722107;83;27203;-52
2020/12/17 04:39:06;;;;;;;83.27;39.20;;;;;;;4.35;88.34;101309.67;1722054;83;25703;-51
2020/12/17 04:41:33;;;;;;;85.35;39.15;;;;;;;4.34;88.34;101309.38;1722051;83;26308;-50
2020/12/17 04:44:00;;;;;;;81.90;38.42;;;;;;;4.35;88.34;101307.80;1722110;83;25583;-46
2020/12/17 04:46:27;;;;;;;81.50;38.20;;;;;;;4.37;88.41;101306.22;1722108;83;25725;-48
2020/12/17 04:48:55;;;;;;;81.90;38.60;;;;;;;4.38;88.35;101314.55;1699189;83;26840;-49
2020/12/17 04:51:22;;;;;;;82.57;38.73;;;;;;;4.36;88.32;101305.41;1722016;83;25735;-52
2020/12/17 04:53:50;;;;;;;86.67;40.33;;;;;;;4.35;88.31;101302.44;1722074;83;26342;-46
2020/12/17 04:56:19;;;;;;;81.50;39.00;;;;;;;4.36;88.34;101301.91;1722118;83;25718;-47
2020/12/17 04:58:49;;;;;;;82.75;39.45;;;;;;;4.36;88.37;101305.41;1722131;83;25659;-46
2020/12/17 05:01:18;;;;;;;78.07;38.48;;;;;;;4.35;88.38;101300.30;1722181;83;26494;-52
2020/12/17 05:03:47;;;;;;;82.95;38.92;;;;;;;4.36;88.37;101303.24;1722130;83;25587;-53
2020/12/17 05:06:18;;;;;;;84.13;38.30;;;;;;;4.35;88.38;101302.97;1699007;83;25705;-48
2020/12/17 05:08:45;;;;;;;85.00;39.48;;;;;;;4.35;88.41;101311.02;1721029;83;25586;-53
2020/12/17 05:11:14;;;;;;;81.32;37.55;;;;;;;4.36;88.42;101307.26;1722103;83;26342;-50
2020/12/17 05:13:41;;;;;;;83.27;40.37;;;;;;;4.36;88.43;101305.92;1722311;83;27155;-50
2020/12/17 05:16:07;;;;;;;76.00;35.88;;;;;;;4.34;88.39;101316.88;1721973;83;25713;-52
2020/12/17 05:18:34;;;;;;;79.70;37.17;;;;;;;4.35;88.40;101315.83;1722090;83;25779;-48
2020/12/17 05:21:02;;;;;;;80.17;37.48;;;;;;;4.34;88.38;101313.39;1722081;83;25668;-50
2020/12/17 05:23:29;;;;;;;81.92;37.40;;;;;;;4.33;88.36;101315.27;1699362;83;25709;-51
2020/12/17 05:25:56;;;;;;;81.78;37.83;;;;;;;4.32;88.40;101309.61;1722056;83;25725;-46
2020/12/17 05:28:22;;;;;;;79.12;36.65;;;;;;;4.32;88.39;101314.97;1722029;83;25802;-52
2020/12/17 05:30:49;;;;;;;77.72;37.33;;;;;;;4.30;88.42;101319.23;1722028;83;25668;-53
2020/12/17 05:33:16;;;;;;;79.87;37.33;;;;;;;4.28;88.33;101320.00;1721978;82;25806;-50
2020/12/17 05:35:43;;;;;;;84.62;37.50;;;;;;;4.26;88.40;101318.09;1722145;83;25607;-53
2020/12/17 05:38:11;;;;;;;84.13;38.42;;;;;;;4.25;88.43;101309.77;1722019;83;27119;-51
2020/12/17 05:40:42;;;;;;;81.65;37.35;;;;;;;4.24;88.49;101313.52;1722029;83;25669;-51
2020/12/17 05:43:11;;;;;;;79.55;37.42;;;;;;;4.25;88.57;101311.11;1722142;83;25719;-53
2020/12/17 05:45:38;;;;;;;76.37;37.48;;;;;;;4.26;88.61;101311.41;1722015;83;25730;-51
2020/12/17 05:48:18;;;;;;;74.20;36.73;;;;;;;4.27;88.58;101316.22;1722190;83;25694;-46
2020/12/17 05:51:02;;;;;;;71.25;34.18;;;;;;;4.27;88.57;101318.91;1722970;83;25940;-53
2020/12/17 05:53:31;;;;;;;74.53;36.42;;;;;;;4.27;88.54;101317.56;1722903;83;25631;-49
2020/12/17 05:56:07;;;;;;;75.85;37.08;;;;;;;4.27;88.60;101318.91;1723240;82;25723;-47
2020/12/17 05:58:42;;;;;;;78.12;35.08;;;;;;;4.26;88.56;101322.12;1722547;82;25655;-51
2020/12/17 06:01:16;;;;;;;75.57;34.08;;;;;;;4.24;88.53;101322.89;1722582;83;26305;-52
2020/12/17 06:03:44;;;;;;;78.30;35.80;;;;;;;4.24;88.64;101322.89;1722622;83;26677;-47
2020/12/17 06:06:12;;;;;;;74.07;35.40;;;;;;;4.25;88.76;101324.50;1722748;82;26093;-46
2020/12/17 06:08:41;;;;;;;74.65;35.60;;;;;;;4.26;88.70;101315.42;1722071;83;25915;-49
2020/12/17 06:11:10;;;;;;;73.00;36.35;;;;;;;4.25;88.70;101319.14;1722557;82;25744;-47
2020/12/17 06:13:40;;;;;;;75.55;36.88;;;;;;;4.27;88.75;101321.08;1723005;82;25610;-46
2020/12/17 06:16:08;;;;;;;;;;;;;;;4.28;88.66;101325.36;1725581;83;26438;-46
2020/12/17 06:18:57;;;;;;;74.58;35.00;;;;;;;4.27;88.60;101326.43;1723071;83;25619;-45
2020/12/17 06:21:26;;;;;;;72.30;34.43;;;;;;;4.27;88.71;101332.30;1723157;83;32897;-48
2020/12/17 06:23:58;;;;;;;75.15;35.60;;;;;;;4.28;88.73;101333.93;1723101;82;25706;-45
2020/12/17 06:26:26;;;;;;;79.62;36.35;;;;;;;4.28;88.70;101333.93;1723090;82;26391;-48
2020/12/17 06:28:54;;;;;;;77.25;35.85;;;;;;;4.28;88.71;101333.93;1723040;83;26884;-52
2020/12/17 06:31:26;;;;;;;74.58;35.65;;;;;;;4.29;88.68;101334.20;1723125;82;25959;-49
2020/12/17 06:34:05;;;;;;;80.42;35.70;;;;;;;4.28;88.69;101332.05;1723049;83;25725;-45
2020/12/17 06:36:42;;;;;;;75.12;35.13;;;;;;;4.30;88.67;101334.50;1722920;83;25802;-46
2020/12/17 06:39:09;;;;;;;78.37;38.10;;;;;;;4.29;88.65;101335.03;1723155;83;25633;-51
2020/12/17 06:41:36;;;;;;;79.03;38.05;;;;;;;4.30;88.70;101331.81;1723039;83;26169;-51
2020/12/17 06:44:32;;;;;;;81.47;37.40;;;;;;;4.30;88.68;101339.31;1722986;82;26345;-52
2020/12/17 06:47:02;;;;;;;83.10;37.45;;;;;;;4.31;88.64;101333.45;1712081;82;25803;-53
2020/12/17 06:49:31;;;;;;;91.60;41.42;;;;;;;4.34;88.79;101338.84;1716326;82;35161;-49
2020/12/17 06:52:05;;;;;;;80.92;36.25;;;;;;;4.33;88.71;101332.68;1731046;82;25694;-53
2020/12/17 06:54:37;;;;;;;78.47;35.85;;;;;;;4.33;88.67;101339.38;1730397;82;27267;-47
2020/12/17 06:57:16;;;;;;;83.20;36.85;;;;;;;4.31;88.62;101338.81;1731209;82;25799;-48
2020/12/17 06:59:46;;;;;;;75.05;35.40;;;;;;;4.30;88.64;101333.96;1749483;82;25660;-48
2020/12/17 07:02:17;;;;;;;79.05;35.65;;;;;;;4.29;88.69;101341.73;1731585;82;25645;-54
2020/12/17 07:04:48;;;;;;;74.50;35.75;;;;;;;4.31;88.79;101349.53;1731580;82;25869;-56
2020/12/17 07:07:24;;;;;;;78.47;36.42;;;;;;;4.33;88.86;101346.07;1731619;82;25786;-55
2020/12/17 07:09:55;;;;;;;73.33;35.30;;;;;;;4.36;88.86;101350.12;1731536;82;25663;-55
2020/12/17 07:12:39;;;;;;;75.05;35.25;;;;;;;4.36;88.83;101345.59;1731555;82;25671;-55
2020/12/17 07:15:33;;;;;;;76.87;34.83;;;;;;;4.39;88.86;101355.00;1731598;82;25987;-55
2020/12/17 07:18:25;;;;;;;68.12;33.85;;;;;;;4.38;88.77;101346.70;1749534;82;25705;-56
2020/12/17 07:21:07;;;;;;;76.50;35.80;;;;;;;4.37;88.71;101349.88;1703327;82;26722;-52
2020/12/17 07:23:35;;;;;;;70.22;33.28;;;;;;;4.36;88.74;101347.44;1667975;86;25741;-53
2020/12/17 07:26:15;;;;;;;72.82;33.73;;;;;;;4.35;88.72;101351.99;1710179;83;25793;-53
2020/12/17 07:28:52;;;;;;;68.00;32.53;;;;;;;4.36;88.78;101346.10;1710180;83;26075;-56
2020/12/17 07:31:27;;;;;;;77.15;34.33;;;;;;;4.36;88.86;101349.61;1710268;83;25578;-54
2020/12/17 07:33:55;;;;;;;70.05;32.23;;;;;;;4.38;88.90;101345.36;1709668;83;25957;-53
2020/12/17 07:36:42;;;;;;;69.75;33.25;;;;;;;4.39;89.00;101345.63;1667872;86;25721;-46
2020/12/17 07:39:17;;;;;;;66.45;30.70;;;;;;;4.45;88.89;101351.37;1847802;76;34736;-51
2020/12/17 07:41:44;;;;;;;70.78;33.33;;;;;;;4.36;88.81;101345.59;1818013;78;25563;-49
2020/12/17 07:44:11;;;;;;;73.80;32.38;;;;;;;4.35;88.86;101343.16;1817940;78;25759;-49
2020/12/17 07:46:42;;;;;;;69.27;32.03;;;;;;;4.35;88.93;101343.95;1817764;78;25884;-51
2020/12/17 07:49:30;;;;;;;70.57;32.78;;;;;;;4.38;89.04;101343.48;1807944;77;25720;-53
2020/12/17 07:51:59;;;;;;;68.67;32.38;;;;;;;4.41;89.12;101348.36;1792180;79;25736;-48
2020/12/17 07:54:26;;;;;;;67.97;31.50;;;;;;;4.43;89.09;101348.13;1788550;80;25638;-49
2020/12/17 07:57:00;;;;;;;68.83;31.73;;;;;;;4.45;89.09;101347.34;1803512;77;26147;-55
2020/12/17 07:59:27;;;;;;;65.52;30.43;;;;;;;4.45;89.03;101343.33;1801388;78;25584;-54
2020/12/17 08:02:05;;;;;;;65.32;30.08;;;;;;;4.46;89.07;101336.90;1788368;79;25637;-53
2020/12/17 08:04:31;;;;;;;64.97;30.50;;;;;;;4.46;88.97;101340.92;1788562;80;25648;-55
2020/12/17 08:07:08;;;;;;;62.23;29.30;;;;;;;4.46;88.94;101352.47;1803173;79;25589;-55
2020/12/17 08:09:35;;;;;;;65.85;31.30;;;;;;;4.47;89.09;101354.08;1785713;80;27113;-53
2020/12/17 08:12:02;;;;;;;65.87;31.02;;;;;;;4.52;89.09;101349.88;1786061;79;25587;-54
2020/12/17 08:14:30;;;;;;;62.65;29.23;;;;;;;4.52;89.05;101348.53;1815554;79;26061;-54
2020/12/17 08:17:08;;;;;;;58.30;29.07;;;;;;;4.52;88.96;101348.53;1816321;79;25572;-54
2020/12/17 08:19:35;;;;;;;65.22;30.48;;;;;;;4.52;88.91;101350.68;1815999;78;25573;-54
2020/12/17 08:22:03;;;;;;;62.83;29.12;;;;;;;4.54;88.97;101351.24;1816184;78;25764;-52
2020/12/17 08:24:32;;;;;;;64.05;28.50;;;;;;;4.56;89.02;101353.69;1816189;78;25196;-53
2020/12/17 08:26:59;;;;;;;65.80;30.50;;;;;;;4.58;88.99;101352.91;1749795;82;25657;-53
2020/12/17 08:29:25;;;;;;;55.88;28.70;;;;;;;4.58;89.01;101353.73;1752981;81;25635;-54
2020/12/17 08:31:52;;;;;;;64.22;29.57;;;;;;;4.60;88.97;101355.64;1749532;81;25687;-48
2020/12/17 08:34:19;;;;;;;64.42;29.27;;;;;;;4.62;88.94;101360.77;1749537;81;25726;-54
2020/12/17 08:36:45;;;;;;;65.12;30.23;;;;;;;4.63;88.90;101355.67;1754487;81;25683;-52
2020/12/17 08:39:17;;;;;;;63.13;29.48;;;;;;;4.67;88.93;101361.65;1756578;81;25632;-51
2020/12/17 08:41:50;;;;;;;67.32;31.07;;;;;;;4.69;88.87;101357.39;1750497;81;25654;-53
2020/12/17 08:44:24;;;;;;;65.52;30.30;;;;;;;4.70;88.70;101369.75;1704848;83;25723;-55
2020/12/17 08:47:00;;;;;;;62.08;27.95;;;;;;;4.71;88.63;101364.66;1756224;79;25992;-52
2020/12/17 08:49:29;;;;;;;62.60;27.60;;;;;;;4.70;88.60;101371.09;1745100;79;25635;-51
2020/12/17 08:51:56;;;;;;;64.40;28.98;;;;;;;4.72;88.63;101362.80;1795501;79;25647;-52
2020/12/17 08:54:30;;;;;;;57.58;27.62;;;;;;;4.72;88.51;101363.61;1795500;79;25574;-52
2020/12/17 08:57:06;;;;;;;62.55;29.00;;;;;;;4.73;88.51;101361.20;1795403;79;25606;-54
2020/12/17 08:59:33;;;;;;;66.02;30.25;;;;;;;4.73;88.46;101363.07;1795443;79;25776;-53
2020/12/17 09:02:00;;;;;;;61.58;27.93;;;;;;;4.73;88.37;101363.07;1762665;79;25699;-53
2020/12/17 09:04:28;;;;;;;62.13;27.67;;;;;;;4.74;88.57;101356.13;1762797;81;25693;-54
2020/12/17 09:06:59;;;;;;;64.80;27.40;;;;;;;4.75;88.49;101359.11;1758354;81;25620;-54
2020/12/17 09:09:29;;;;;;;62.08;29.23;;;;;;;4.77;88.45;101356.98;1733474;81;25923;-54
2020/12/17 09:11:59;;;;;;;65.30;29.90;;;;;;;4.80;88.56;101355.17;1732755;81;25933;-56
2020/12/17 09:14:36;;;;;;;;;;;;;;;4.83;88.56;101359.22;1735351;82;25718;-54
2020/12/17 09:17:11;;;;;;;64.10;30.17;;;;;;;4.84;88.37;101353.61;1735609;81;25682;-55
2020/12/17 09:19:38;;;;;;;63.85;29.63;;;;;;;4.83;88.22;101360.02;1761488;81;25594;-56
2020/12/17 09:22:05;;;;;;;62.43;30.80;;;;;;;4.83;88.29;101360.02;1763233;81;25644;-54
2020/12/17 09:24:34;;;;;;;66.47;30.23;;;;;;;4.83;88.15;101361.89;1763169;81;25764;-52
2020/12/17 09:27:26;;;;;;;63.75;30.30;;;;;;;4.80;88.08;101353.83;1763137;81;25614;-51
2020/12/17 09:30:17;;;;;;;62.60;29.45;;;;;;;4.81;88.09;101361.34;1746812;79;25756;-52
2020/12/17 09:32:57;;;;;;;63.65;30.45;;;;;;;4.77;87.99;101358.33;1745466;79;25638;-48
2020/12/17 09:35:32;;;;;;;70.28;31.55;;;;;;;4.79;88.11;101358.09;1745814;82;25764;-53
2020/12/17 09:38:12;;;;;;;68.47;33.60;;;;;;;4.80;88.13;101358.36;1740553;81;26896;-54
2020/12/17 09:40:42;;;;;;;69.47;32.05;;;;;;;4.81;88.19;101354.63;1732198;82;25621;-52
2020/12/17 09:43:14;;;;;;;66.55;29.12;;;;;;;4.83;88.30;101350.63;1732347;82;25935;-51
2020/12/17 09:45:45;;;;;;;68.65;31.25;;;;;;;4.85;88.25;101356.59;1732384;82;25636;-52
2020/12/17 09:48:27;;;;;;;63.98;28.52;;;;;;;4.88;88.16;101352.59;1732199;81;25794;-54
2020/12/17 09:51:03;;;;;;;64.55;28.17;;;;;;;4.89;88.15;101352.89;1731395;82;25710;-57
2020/12/17 09:53:33;;;;;;;62.00;28.12;;;;;;;4.90;88.14;101350.47;1732031;82;25539;-55
2020/12/17 09:56:01;;;;;;;64.07;29.63;;;;;;;4.92;88.02;101351.57;1731778;82;25672;-56
2020/12/17 09:58:27;;;;;;;65.42;28.73;;;;;;;4.91;87.87;101349.42;1732279;82;25675;-55
2020/12/17 10:00:54;;;;;;;62.15;28.60;;;;;;;4.92;87.96;101348.38;1732305;82;25669;-56
2020/12/17 10:03:21;;;;;;;58.00;28.15;;;;;;;4.93;87.85;101348.65;1732264;82;26226;-56
2020/12/17 10:05:47;;;;;;;69.05;29.10;;;;;;;4.95;87.95;101343.84;1732019;82;25629;-56
2020/12/17 10:08:14;;;;;;;58.25;28.30;;;;;;;4.99;88.09;101349.55;1732219;82;25707;-55
2020/12/17 10:10:41;;;;;;;67.60;29.98;;;;;;;5.01;88.02;101348.78;1732040;82;25620;-55
2020/12/17 10:13:09;;;;;;;60.98;29.05;;;;;;;5.04;87.91;101346.95;1731838;82;26275;-58
2020/12/17 10:15:38;;;;;;;59.20;29.42;;;;;;;5.05;87.80;101346.67;1731445;82;26191;-56
2020/12/17 10:18:05;;;;;;;57.08;27.87;;;;;;;5.07;87.79;101346.44;1731619;82;26153;-56
2020/12/17 10:20:31;;;;;;;60.65;28.40;;;;;;;5.07;87.55;101343.75;1731632;82;25643;-56
2020/12/17 10:22:58;;;;;;;65.10;29.77;;;;;;;5.06;87.46;101340.80;1732986;81;25767;-55
2020/12/17 10:25:25;;;;;;;57.58;28.42;;;;;;;5.07;87.60;101335.70;1731734;82;25696;-56
2020/12/17 10:27:55;;;;;;;58.55;28.52;;;;;;;5.06;87.35;101334.10;1730851;82;26479;-55
2020/12/17 10:30:22;;;;;;;53.45;27.17;;;;;;;5.03;87.36;101336.73;1731745;82;25588;-55
2020/12/17 10:32:48;;;;;;;60.60;27.90;;;;;;;5.05;87.45;101333.27;1731624;82;25855;-57
2020/12/17 10:35:15;;;;;;;65.72;29.12;;;;;;;5.04;87.37;101330.86;1731571;82;25715;-56
2020/12/17 10:37:42;;;;;;;61.77;28.50;;;;;;;5.05;87.64;101333.27;1731718;82;25657;-54
2020/12/17 10:40:12;;;;;;;61.37;29.45;;;;;;;5.07;87.50;101333.02;1731840;81;25918;-57
2020/12/17 10:42:40;;;;;;;59.95;28.35;;;;;;;5.09;87.53;101322.89;1731858;82;25664;-55
2020/12/17 10:45:09;;;;;;;63.28;30.17;;;;;;;5.13;87.58;101322.66;1731623;82;25907;-54
2020/12/17 10:47:37;;;;;;;69.75;33.80;;;;;;;5.14;87.56;101324.30;1731616;82;25629;-55
2020/12/17 10:50:08;;;;;;;64.53;31.50;;;;;;;5.14;87.38;101324.80;1733836;81;25648;-56
2020/12/17 10:52:35;;;;;;;62.08;30.20;;;;;;;5.16;87.37;101315.47;1752385;81;25704;-57
2020/12/17 10:55:03;;;;;;;72.40;31.42;;;;;;;5.15;87.11;101316.52;1752271;81;25715;-56
2020/12/17 10:57:29;;;;;;;69.53;31.75;;;;;;;5.13;87.05;101310.59;1752383;81;25637;-55
2020/12/17 10:59:56;;;;;;;66.80;32.15;;;;;;;5.12;87.18;101303.59;1755505;81;26156;-54
2020/12/17 11:02:23;;;;;;;66.50;31.95;;;;;;;5.13;87.14;101300.41;1761943;81;25777;-56
2020/12/17 11:04:49;;;;;;;66.12;29.72;;;;;;;5.12;86.99;101301.45;1762040;81;27318;-54
2020/12/17 11:07:16;;;;;;;58.05;28.20;;;;;;;5.11;87.20;101295.80;1761905;81;25706;-55
2020/12/17 11:09:43;;;;;;;59.77;28.30;;;;;;;5.12;87.06;101292.87;1758151;80;26108;-55
2020/12/17 11:12:10;;;;;;;58.10;29.87;;;;;;;5.12;87.10;101292.87;1754298;81;25667;-54
2020/12/17 11:14:37;;;;;;;62.45;31.30;;;;;;;5.12;87.13;101299.57;1746607;80;25682;-55
2020/12/17 11:17:04;;;;;;;63.05;30.50;;;;;;;5.14;87.17;101296.64;1752306;81;25923;-52
2020/12/17 11:19:31;;;;;;;69.60;33.53;;;;;;;5.14;87.16;101289.94;1752236;81;25711;-56
2020/12/17 11:22:01;;;;;;;64.30;31.73;;;;;;;5.18;87.27;101291.89;1752440;81;25667;-54
2020/12/17 11:24:29;;;;;;;63.38;29.80;;;;;;;5.21;87.19;101299.95;1752265;81;25671;-55
2020/12/17 11:26:55;;;;;;;58.60;28.52;;;;;;;5.21;86.94;101294.59;1790034;79;25633;-52